createdAt,value
2023-03-07T00:00:50.162Z,21.95
2023-03-07T00:04:51.586Z,31.67
2023-03-07T00:08:55.860Z,19.55
2023-03-07T00:12:58.684Z,20.70
2023-03-07T00:17:00.124Z,28.52
2023-03-07T00:21:03.545Z,18.60
2023-03-07T00:25:05.591Z,25.02
2023-03-07T00:29:09.724Z,23.88
2023-03-07T00:33:11.214Z,26.55
2023-03-07T00:37:12.733Z,27.25
2023-03-07T00:41:16.067Z,24.65
2023-03-07T00:45:18.856Z,20.70
2023-03-07T00:49:20.273Z,24.67
2023-03-07T00:53:22.422Z,18.65
2023-03-07T00:57:23.849Z,24.38
2023-03-07T01:01:26.653Z,21.13
2023-03-07T01:05:28.209Z,16.27
2023-03-07T01:09:29.619Z,18.10
2023-03-07T01:13:32.002Z,17.08
2023-03-07T01:17:34.802Z,17.95
2023-03-07T01:21:38.284Z,21.02
2023-03-07T01:25:41.197Z,22.45
2023-03-07T01:29:42.631Z,16.42
2023-03-07T01:33:47.232Z,19.45
2023-03-07T01:37:48.735Z,18.27
2023-03-07T01:41:50.298Z,22.25
2023-03-07T01:46:27.999Z,19.90
2023-03-07T01:50:31.175Z,25.05
2023-03-07T01:54:36.809Z,26.20
2023-03-07T01:58:39.578Z,20.10
2023-03-07T02:02:45.625Z,19.52
2023-03-07T02:06:48.423Z,26.55
2023-03-07T02:10:50.121Z,22.02
2023-03-07T02:14:52.249Z,31.85
2023-03-07T02:18:54.109Z,22.38
2023-03-07T02:22:57.049Z,25.02
2023-03-07T02:26:59.864Z,25.35
2023-03-07T02:31:06.005Z,21.67
2023-03-07T02:35:14.360Z,23.20
2023-03-07T02:39:17.887Z,27.80
2023-03-07T02:43:21.670Z,19.55
2023-03-07T02:47:23.111Z,30.10
2023-03-07T02:51:24.576Z,29.67
2023-03-07T02:55:26.186Z,23.77
2023-03-07T02:59:28.968Z,32.00
2023-03-07T03:03:30.540Z,21.90
2023-03-07T03:07:32.075Z,27.30
2023-03-07T03:11:33.506Z,20.40
2023-03-07T03:15:36.304Z,26.52
2023-03-07T03:19:37.744Z,23.30
2023-03-07T03:23:39.178Z,18.55
2023-03-07T03:27:41.052Z,20.52
2023-03-07T03:31:44.733Z,23.13
2023-03-07T03:35:46.205Z,26.30
2023-03-07T03:39:47.630Z,30.42
2023-03-07T03:43:49.335Z,22.13
2023-03-07T03:47:52.195Z,21.77
2023-03-07T03:51:53.643Z,16.27
2023-03-07T03:56:01.563Z,18.90
2023-03-07T04:00:04.007Z,24.20
2023-03-07T04:04:06.883Z,23.17
2023-03-07T04:08:08.324Z,23.23
2023-03-07T04:12:09.804Z,17.92
2023-03-07T04:16:11.594Z,21.75
2023-03-07T04:20:14.615Z,21.13
2023-03-07T04:24:16.048Z,23.13
2023-03-07T04:28:18.150Z,23.75
2023-03-07T04:32:19.601Z,26.30
2023-03-07T04:36:23.701Z,27.30
2023-03-07T04:40:25.321Z,20.40
2023-03-07T04:44:26.942Z,22.40
2023-03-07T04:48:28.430Z,21.58
2023-03-07T04:52:31.253Z,26.25
2023-03-07T04:56:32.678Z,30.23
2023-03-07T05:00:34.142Z,29.48
2023-03-07T05:04:35.602Z,21.08
2023-03-07T05:08:38.467Z,20.88
2023-03-07T05:12:39.915Z,18.13
2023-03-07T05:16:41.350Z,18.90
2023-03-07T05:20:42.815Z,21.52
2023-03-07T05:24:45.592Z,24.38
2023-03-07T05:28:47.038Z,40.78
2023-03-07T05:32:48.513Z,26.30
2023-03-07T05:36:49.997Z,19.95
2023-03-07T05:40:52.775Z,20.60
2023-03-07T05:44:54.227Z,18.08
2023-03-07T05:48:55.706Z,25.25
2023-03-07T05:52:57.163Z,28.63
2023-03-07T05:56:59.979Z,26.80
2023-03-07T06:01:02.283Z,18.27
2023-03-07T06:05:04.013Z,16.63
2023-03-07T06:09:05.534Z,20.10
2023-03-07T06:13:15.331Z,21.55
2023-03-07T06:17:16.801Z,22.05
2023-03-07T06:21:18.877Z,15.68
2023-03-07T06:25:20.532Z,16.88
2023-03-07T06:29:23.445Z,15.63
2023-03-07T06:33:24.933Z,18.02
2023-03-07T06:37:26.420Z,19.55
2023-03-07T06:41:27.890Z,18.35
2023-03-07T06:45:30.793Z,16.38
2023-03-07T06:49:32.345Z,18.73
2023-03-07T06:53:33.837Z,19.73
2023-03-07T06:57:35.516Z,13.95
2023-03-07T07:01:38.798Z,14.15
2023-03-07T07:05:40.374Z,14.43
2023-03-07T07:09:41.818Z,20.15
2023-03-07T07:13:43.335Z,15.95
2023-03-07T07:17:46.115Z,12.88
2023-03-07T07:21:47.603Z,14.50
2023-03-07T07:25:49.040Z,14.32
2023-03-07T07:29:50.482Z,14.50
2023-03-07T07:33:53.274Z,15.80
2023-03-07T07:37:54.920Z,19.73
2023-03-07T07:41:56.408Z,14.57
2023-03-07T07:45:57.902Z,21.35
2023-03-07T07:50:00.712Z,15.95
2023-03-07T07:54:02.199Z,11.68
2023-03-07T07:58:03.865Z,16.60
2023-03-07T08:02:05.449Z,20.00
2023-03-07T08:06:08.308Z,13.10
2023-03-07T08:10:11.744Z,13.05
2023-03-07T08:14:13.260Z,13.35
2023-03-07T08:18:14.807Z,20.70
2023-03-07T08:22:17.594Z,12.82
2023-03-07T08:26:19.043Z,23.65
2023-03-07T08:30:20.712Z,11.10
2023-03-07T08:34:22.190Z,18.27
2023-03-07T08:38:27.431Z,14.30
2023-03-07T08:42:29.823Z,12.95
2023-03-07T08:46:32.004Z,19.25
2023-03-07T08:50:33.499Z,13.70
2023-03-07T08:54:36.336Z,13.85
2023-03-07T08:58:38.208Z,11.43
2023-03-07T09:02:39.679Z,7.60
2023-03-07T09:06:41.176Z,14.48
2023-03-07T09:10:44.024Z,13.27
2023-03-07T09:14:45.542Z,11.35
2023-03-07T09:18:46.997Z,18.63
2023-03-07T09:22:48.470Z,10.25
2023-03-07T09:26:51.275Z,13.43
2023-03-07T09:30:52.704Z,8.63
2023-03-07T09:34:54.165Z,14.57
2023-03-07T09:38:58.072Z,8.27
2023-03-07T09:43:11.634Z,10.35
2023-03-07T09:47:33.875Z,8.48
2023-03-07T09:51:38.175Z,16.67
2023-03-07T09:55:40.257Z,10.95
2023-03-07T09:59:46.050Z,8.13
2023-03-07T10:03:55.801Z,12.38
2023-03-07T10:07:57.938Z,13.30
2023-03-07T10:12:30.957Z,12.35
2023-03-07T10:16:40.491Z,12.27
2023-03-07T10:20:47.821Z,11.05
2023-03-07T10:25:06.632Z,15.45
2023-03-07T10:29:14.339Z,13.13
2023-03-07T10:33:19.438Z,11.52
2023-03-07T10:37:24.372Z,12.65
2023-03-07T10:41:26.179Z,16.50
2023-03-07T10:45:30.041Z,12.65
2023-03-07T10:49:37.466Z,17.70
2023-03-07T10:53:39.904Z,13.02
2023-03-07T10:57:41.384Z,13.57
2023-03-07T11:01:54.415Z,9.75
2023-03-07T11:05:57.287Z,9.63
2023-03-07T11:10:00.208Z,13.90
2023-03-07T11:14:07.747Z,9.93
2023-03-07T11:18:25.871Z,14.50
2023-03-07T11:26:38.114Z,9.27
2023-03-07T11:30:46.521Z,8.82
2023-03-07T11:34:53.330Z,12.05
2023-03-07T11:39:01.087Z,10.90
2023-03-07T11:43:11.129Z,11.60
2023-03-07T11:47:24.770Z,11.32
2023-03-07T11:51:44.728Z,11.82
2023-03-07T11:55:59.492Z,12.68
2023-03-07T12:00:20.422Z,12.32
2023-03-07T12:04:53.477Z,14.93
2023-03-07T12:09:18.346Z,15.48
2023-03-07T12:13:32.120Z,11.45
2023-03-07T12:17:43.377Z,8.93
2023-03-07T12:22:05.857Z,12.13
2023-03-07T12:26:13.667Z,20.95
2023-03-07T12:30:20.214Z,11.80
2023-03-07T12:34:30.433Z,18.02
2023-03-07T12:38:39.445Z,12.27
2023-03-07T12:42:46.553Z,11.02
2023-03-07T12:46:54.655Z,10.85
2023-03-07T12:51:02.416Z,12.35
2023-03-07T12:55:15.148Z,11.68
2023-03-07T12:59:16.799Z,14.68
2023-03-07T13:03:26.897Z,10.93
2023-03-07T13:07:31.082Z,11.65
2023-03-07T13:11:34.407Z,12.00
2023-03-07T13:16:07.779Z,13.43
2023-03-07T13:20:39.866Z,10.80
2023-03-07T13:24:42.893Z,9.50
2023-03-07T13:28:49.281Z,8.13
2023-03-07T13:32:59.456Z,17.73
2023-03-07T13:37:48.011Z,12.00
2023-03-07T13:41:51.021Z,9.68
2023-03-07T13:45:54.020Z,9.75
2023-03-07T13:49:55.539Z,8.85
2023-03-07T13:54:02.152Z,12.18
2023-03-07T13:58:20.148Z,7.72
2023-03-07T14:06:32.087Z,9.13
2023-03-07T14:10:35.004Z,13.82
2023-03-07T14:14:51.895Z,12.05
2023-03-07T14:19:08.668Z,7.72
2023-03-07T14:23:24.224Z,11.70
2023-03-07T14:27:27.101Z,10.32
2023-03-07T14:31:31.295Z,11.63
2023-03-07T14:35:38.315Z,9.15
2023-03-07T14:39:48.965Z,12.38
2023-03-07T14:44:01.680Z,10.90
2023-03-07T14:48:16.531Z,13.48
2023-03-07T14:52:30.488Z,11.65
2023-03-07T14:56:33.060Z,10.25
2023-03-07T15:00:35.920Z,14.23
2023-03-07T15:04:37.511Z,18.08
2023-03-07T15:08:39.244Z,11.65
2023-03-07T15:12:41.221Z,13.13
2023-03-07T15:16:48.159Z,12.77
2023-03-07T15:20:51.636Z,10.80
2023-03-07T15:24:53.659Z,8.95
2023-03-07T15:29:00.229Z,9.48
2023-03-07T15:33:12.681Z,10.63
2023-03-07T15:37:21.391Z,11.23
2023-03-07T15:41:28.585Z,17.92
2023-03-07T15:45:32.109Z,11.05
2023-03-07T15:49:42.025Z,12.38
2023-03-07T15:53:45.155Z,13.23
2023-03-07T15:57:53.293Z,12.63
2023-03-07T16:01:55.012Z,22.27
2023-03-07T16:05:59.621Z,12.00
2023-03-07T16:10:01.108Z,15.02
2023-03-07T16:14:02.930Z,13.55
2023-03-07T16:18:05.262Z,17.92
2023-03-07T16:22:13.924Z,18.80
2023-03-07T16:26:18.682Z,11.25
2023-03-07T16:30:24.104Z,9.40
2023-03-07T16:34:25.580Z,10.15
2023-03-07T16:38:28.550Z,11.07
2023-03-07T16:42:30.046Z,17.35
2023-03-07T16:46:31.702Z,16.00
2023-03-07T16:50:33.321Z,15.35
2023-03-07T16:54:36.198Z,17.17
2023-03-07T16:58:37.744Z,24.95
2023-03-07T17:02:39.392Z,15.63
2023-03-07T17:06:41.410Z,21.15
2023-03-07T17:10:44.903Z,14.13
2023-03-07T17:14:46.424Z,17.08
2023-03-07T17:18:48.378Z,23.08
2023-03-07T17:22:50.736Z,22.30
2023-03-07T17:26:54.867Z,24.38
2023-03-07T17:30:56.293Z,29.30
2023-03-07T17:34:57.792Z,24.23
2023-03-07T17:38:59.245Z,17.42
2023-03-07T17:43:02.067Z,19.70
2023-03-07T17:47:03.955Z,16.85
2023-03-07T17:51:08.309Z,17.17
2023-03-07T17:55:10.520Z,21.23
2023-03-07T17:59:13.345Z,25.35
2023-03-07T18:03:14.801Z,19.88
2023-03-07T18:07:16.249Z,21.45
2023-03-07T18:11:18.710Z,24.27
2023-03-07T18:15:22.379Z,21.70
2023-03-07T18:19:27.038Z,18.67
2023-03-07T18:23:29.177Z,28.67
2023-03-07T18:27:30.728Z,21.42
2023-03-07T18:31:33.517Z,26.02
2023-03-07T18:35:36.324Z,20.35
2023-03-07T18:39:37.774Z,21.17
2023-03-07T18:43:39.936Z,30.23
2023-03-07T18:47:43.995Z,20.67
2023-03-07T18:51:45.478Z,30.05
2023-03-07T18:55:46.917Z,26.27
2023-03-07T18:59:48.325Z,22.42
2023-03-07T19:03:52.819Z,20.83
2023-03-07T19:07:54.300Z,28.35
2023-03-07T19:11:55.810Z,25.13
2023-03-07T19:16:01.678Z,18.50
2023-03-07T19:20:05.507Z,29.83
2023-03-07T19:24:09.304Z,20.83
2023-03-07T19:28:10.739Z,27.48
2023-03-07T19:32:12.287Z,22.88
2023-03-07T19:36:17.495Z,25.98
2023-03-07T19:40:19.158Z,18.48
2023-03-07T19:44:20.611Z,22.92
2023-03-07T19:48:22.610Z,24.90
2023-03-07T19:52:25.692Z,16.63
2023-03-07T19:56:28.979Z,18.77
2023-03-07T20:00:30.504Z,20.40
2023-03-07T20:04:31.993Z,20.33
2023-03-07T20:08:34.964Z,25.65
2023-03-07T20:12:36.449Z,28.92
2023-03-07T20:16:38.433Z,22.70
2023-03-07T20:20:39.923Z,20.20
2023-03-07T20:24:42.805Z,18.35
2023-03-07T20:28:44.691Z,26.73
2023-03-07T20:32:46.626Z,21.98
2023-03-07T20:36:48.058Z,31.55
2023-03-07T20:40:59.212Z,23.63
2023-03-07T20:45:00.673Z,27.30
2023-03-07T20:49:03.116Z,14.63
2023-03-07T20:53:04.530Z,17.80
2023-03-07T20:57:07.644Z,25.90
2023-03-07T21:01:10.000Z,21.33
2023-03-07T21:05:11.452Z,22.98
2023-03-07T21:09:14.611Z,21.83
2023-03-07T21:13:17.400Z,28.35
2023-03-07T21:17:18.937Z,18.63
2023-03-07T21:21:22.021Z,27.63
2023-03-07T21:25:23.571Z,18.83
2023-03-07T21:29:26.369Z,21.70
2023-03-07T21:33:28.543Z,17.35
2023-03-07T21:37:30.039Z,18.67
2023-03-07T21:41:31.508Z,21.02
2023-03-07T21:45:34.335Z,17.02
2023-03-07T21:49:35.771Z,23.88
2023-03-07T21:53:37.631Z,22.60
2023-03-07T21:57:39.089Z,29.10
2023-03-07T22:01:41.904Z,23.50
2023-03-07T22:05:43.833Z,24.65
2023-03-07T22:09:45.279Z,19.48
2023-03-07T22:13:46.803Z,17.13
2023-03-07T22:17:49.839Z,18.45
2023-03-07T22:21:51.337Z,32.63
2023-03-07T22:25:52.984Z,22.98
2023-03-07T22:29:54.445Z,21.83
2023-03-07T22:33:58.054Z,18.10
2023-03-07T22:37:59.544Z,19.98
2023-03-07T22:42:01.006Z,12.00
2023-03-07T22:46:04.483Z,25.52
2023-03-07T22:50:08.639Z,12.73
2023-03-07T22:54:10.431Z,15.82
2023-03-07T22:58:12.617Z,13.07
2023-03-07T23:02:14.468Z,22.77
2023-03-07T23:06:18.147Z,15.35
2023-03-07T23:10:19.691Z,23.67
2023-03-07T23:14:21.115Z,23.85
2023-03-07T23:18:22.623Z,11.30
2023-03-07T23:22:25.402Z,19.13
2023-03-07T23:26:29.008Z,16.05
2023-03-07T23:30:30.455Z,17.02
2023-03-07T23:34:31.911Z,17.27
2023-03-07T23:38:34.699Z,11.88
2023-03-07T23:42:36.204Z,10.93
2023-03-07T23:46:38.072Z,12.27
2023-03-07T23:50:39.519Z,15.75
2023-03-07T23:54:45.336Z,21.80
2023-03-07T23:58:48.953Z,19.75
